Time;durP1;ratioP1;P1;durP2;ratioP2;P2;SDS_P1;SDS_P2;PMS_P1;PMS_P2;Temp;Humidity;BMP_temperature;BMP_pressure;BME280_temperature;BME280_humidity;BME280_pressure;Samples;Min_cycle;Max_cycle;Signal;HPM_P1;HPM_P2
2022/08/08 00:02:00;;;;;;;8.32;5.95;;;18.50;99.90;;;;;;5042632;28;20268;-76
2022/08/08 00:04:34;;;;;;;6.35;5.75;;;18.50;99.90;;;;;;5045546;28;20025;-76
2022/08/08 00:07:49;;;;;;;10.75;7.18;;;18.50;99.90;;;;;;5042477;28;20543;-76
2022/08/08 00:10:32;;;;;;;9.40;6.35;;;18.40;99.90;;;;;;4971572;28;20055;-76
2022/08/08 00:13:00;;;;;;;;;;;18.40;99.90;;;;;;5042096;28;20112;-76
2022/08/08 00:15:34;;;;;;;10.40;7.45;;;18.40;99.90;;;;;;5048451;28;20269;-76
2022/08/08 00:18:16;;;;;;;8.98;5.75;;;18.40;99.90;;;;;;5044156;28;20041;-76
2022/08/08 00:20:51;;;;;;;8.00;6.90;;;18.40;99.90;;;;;;5048018;28;20109;-76
2022/08/08 00:23:26;;;;;;;9.98;6.72;;;18.30;99.90;;;;;;5039774;28;20026;-76
2022/08/08 00:25:55;;;;;;;12.10;6.45;;;18.30;99.90;;;;;;5039700;28;20021;-76
2022/08/08 00:28:29;;;;;;;7.53;6.15;;;18.20;99.90;;;;;;5043563;28;20523;-76
2022/08/08 00:30:58;;;;;;;9.40;6.20;;;18.20;99.90;;;;;;5030910;28;20037;-76
2022/08/08 00:33:27;;;;;;;7.20;6.15;;;18.20;99.90;;;;;;5038184;28;20074;-76
2022/08/08 00:36:22;;;;;;;9.85;6.32;;;18.20;99.90;;;;;;5040825;28;20466;-76
2022/08/08 00:38:51;;;;;;;11.27;6.90;;;18.10;99.90;;;;;;5042913;28;20435;-75
2022/08/08 00:41:34;;;;;;;8.32;7.20;;;18.10;99.90;;;;;;5042056;28;20064;-76
2022/08/08 00:44:40;;;;;;;9.02;6.72;;;18.10;99.90;;;;;;5037265;28;20129;-76
2022/08/08 00:47:43;;;;;;;8.73;6.28;;;18.10;99.90;;;;;;4997299;28;20041;-76
2022/08/08 00:50:08;;;;;;;8.35;7.05;;;18.00;99.90;;;;;;5037645;28;20112;-76
2022/08/08 00:53:05;;;;;;;9.93;6.45;;;18.00;99.90;;;;;;5041876;28;20170;-77
2022/08/08 00:56:04;;;;;;;10.18;7.03;;;18.00;99.90;;;;;;5043819;28;20107;-76
2022/08/08 00:58:51;;;;;;;9.73;7.38;;;18.00;99.90;;;;;;5047055;28;20035;-76
2022/08/08 01:01:35;;;;;;;12.68;8.57;;;17.80;99.90;;;;;;5033920;28;20117;-76
2022/08/08 01:04:19;;;;;;;10.68;7.20;;;17.80;99.90;;;;;;5041702;28;20434;-76
2022/08/08 01:07:00;;;;;;;9.55;7.32;;;17.80;99.90;;;;;;5042274;28;20040;-77
2022/08/08 01:09:25;;;;;;;10.50;7.10;;;17.80;99.90;;;;;;5037606;28;20029;-77
2022/08/08 01:12:10;;;;;;;11.52;7.15;;;17.80;99.90;;;;;;5043969;28;20041;-77
2022/08/08 01:14:47;;;;;;;10.65;7.38;;;17.80;99.90;;;;;;5040868;28;20034;-76
2022/08/08 01:17:19;;;;;;;11.40;8.05;;;17.70;99.90;;;;;;5047688;28;20048;-77
2022/08/08 01:20:16;;;;;;;10.60;8.50;;;17.70;99.90;;;;;;5043772;28;20377;-76
2022/08/08 01:22:47;;;;;;;10.00;7.90;;;17.70;99.90;;;;;;5040070;28;20033;-77
2022/08/08 01:25:44;;;;;;;11.23;7.93;;;17.70;99.90;;;;;;5042342;28;20025;-76
2022/08/08 01:28:51;;;;;;;9.85;7.50;;;17.70;99.90;;;;;;5043444;28;20033;-77
2022/08/08 01:31:28;;;;;;;13.00;8.25;;;17.70;99.90;;;;;;5039060;28;20139;-76
2022/08/08 01:34:03;;;;;;;10.48;7.65;;;17.60;99.90;;;;;;5022185;28;20032;-76
2022/08/08 01:36:57;;;;;;;13.85;8.35;;;17.60;99.90;;;;;;5044037;28;20056;-77
2022/08/08 01:39:45;;;;;;;12.88;8.70;;;17.50;99.90;;;;;;5044735;28;20033;-76
2022/08/08 01:42:24;;;;;;;10.85;9.35;;;17.50;99.90;;;;;;5042712;28;20033;-77
2022/08/08 01:45:01;;;;;;;12.80;8.23;;;17.50;99.90;;;;;;5044001;28;20497;-76
2022/08/08 01:48:00;;;;;;;9.40;8.38;;;17.50;99.90;;;;;;5027306;28;20461;-76
2022/08/08 01:50:56;;;;;;;9.05;8.02;;;17.40;99.90;;;;;;5047691;28;20040;-77
2022/08/08 01:53:34;;;;;;;10.80;8.60;;;17.40;99.90;;;;;;5041845;28;20057;-77
2022/08/08 01:56:06;;;;;;;13.93;8.43;;;17.40;99.90;;;;;;5039006;28;20112;-77
2022/08/08 01:58:37;;;;;;;9.40;8.07;;;17.40;99.90;;;;;;5040436;28;20515;-77
2022/08/08 02:01:30;;;;;;;13.13;8.98;;;17.40;99.90;;;;;;5045815;28;20079;-77
2022/08/08 02:04:01;;;;;;;13.95;9.45;;;17.30;99.90;;;;;;5039284;28;20025;-76
2022/08/08 02:06:57;;;;;;;14.43;8.80;;;17.30;99.90;;;;;;5029599;28;20035;-77
2022/08/08 02:09:46;;;;;;;13.55;8.15;;;17.30;99.90;;;;;;5043031;28;20030;-77
2022/08/08 02:12:51;;;;;;;14.23;9.35;;;17.30;99.90;;;;;;5043559;28;20520;-77
2022/08/08 02:15:46;;;;;;;12.00;9.50;;;17.30;99.90;;;;;;5043346;28;20536;-76
2022/08/08 02:18:23;;;;;;;13.65;9.43;;;17.20;99.90;;;;;;5030189;28;20057;-77
2022/08/08 02:24:04;;;;;;;12.15;9.10;;;17.20;99.90;;;;;;5042398;28;20095;-76
2022/08/08 02:26:47;;;;;;;9.27;8.05;;;17.20;99.90;;;;;;5044884;28;20025;-77
2022/08/08 02:29:13;;;;;;;;;;;17.10;99.90;;;;;;5046811;28;20405;-77
2022/08/08 02:31:57;;;;;;;12.18;8.70;;;17.00;99.90;;;;;;5050570;28;19931;-77
2022/08/08 02:34:45;;;;;;;10.77;8.30;;;17.00;99.90;;;;;;5039572;28;20094;-77
2022/08/08 02:37:39;;;;;;;12.57;8.80;;;17.00;99.90;;;;;;5042574;28;20499;-77
2022/08/08 02:40:18;;;;;;;11.35;9.38;;;17.00;99.90;;;;;;5038129;28;20029;-78
2022/08/08 02:43:23;;;;;;;10.32;9.23;;;17.00;99.90;;;;;;5044330;28;20464;-77
2022/08/08 02:46:01;;;;;;;14.40;9.40;;;17.00;99.90;;;;;;5045102;28;20098;-77
2022/08/08 02:49:00;;;;;;;13.25;9.13;;;16.90;99.90;;;;;;5041713;28;20017;-77
2022/08/08 02:51:32;;;;;;;12.45;9.25;;;16.90;99.90;;;;;;5047233;28;20446;-77
2022/08/08 02:54:38;;;;;;;13.27;8.73;;;16.90;99.90;;;;;;5047688;28;20075;-77
2022/08/08 02:57:27;;;;;;;11.32;9.93;;;16.80;99.90;;;;;;5044838;28;20025;-77
2022/08/08 03:00:33;;;;;;;10.90;9.00;;;16.60;99.90;;;;;;5047755;28;20039;-77
2022/08/08 03:03:16;;;;;;;11.52;8.75;;;16.70;99.90;;;;;;5005026;28;20126;-76
2022/08/08 03:05:51;;;;;;;10.75;9.23;;;16.70;99.90;;;;;;5036462;28;20033;-76
2022/08/08 03:08:25;;;;;;;11.25;9.43;;;16.70;99.90;;;;;;5025867;28;20389;-76
2022/08/08 03:11:25;;;;;;;12.32;9.52;;;16.70;99.90;;;;;;5043331;28;20218;-76
2022/08/08 03:14:09;;;;;;;12.85;9.52;;;16.70;99.90;;;;;;5027071;28;20476;-76
2022/08/08 03:16:49;;;;;;;12.40;9.93;;;16.60;99.90;;;;;;5043059;28;20096;-76
2022/08/08 03:20:00;;;;;;;12.68;9.25;;;16.60;99.90;;;;;;5029560;28;20457;-77
2022/08/08 03:22:26;;;;;;;12.50;9.73;;;16.60;99.90;;;;;;4988141;28;20030;-76
2022/08/08 03:24:52;;;;;;;11.02;9.73;;;16.60;99.90;;;;;;5040851;28;20044;-76
2022/08/08 03:27:40;;;;;;;11.45;9.80;;;16.60;99.90;;;;;;5040539;28;20021;-76
2022/08/08 03:30:12;;;;;;;14.25;10.07;;;16.50;99.90;;;;;;5045333;28;20045;-77
2022/08/08 03:35:24;;;;;;;14.88;10.68;;;16.50;99.90;;;;;;5037320;28;20037;-77
2022/08/08 03:37:50;;;;;;;18.25;10.57;;;16.50;99.90;;;;;;5040441;28;20516;-76
2022/08/08 03:40:19;;;;;;;15.27;10.73;;;16.40;99.90;;;;;;5046407;28;20025;-76
2022/08/08 03:42:46;;;;;;;13.07;10.90;;;16.40;99.90;;;;;;5043154;28;20029;-77
2022/08/08 03:45:17;;;;;;;15.93;10.75;;;16.40;99.90;;;;;;5047356;28;20010;-76
2022/08/08 03:47:52;;;;;;;13.65;10.95;;;16.40;99.90;;;;;;5038052;28;20099;-76
2022/08/08 03:50:18;;;;;;;22.48;12.25;;;16.30;99.90;;;;;;5040539;28;20029;-77
2022/08/08 03:52:44;;;;;;;15.30;10.73;;;16.40;99.90;;;;;;5039192;28;20025;-78
2022/08/08 03:55:12;;;;;;;11.70;10.07;;;16.30;99.90;;;;;;5045095;28;20029;-78
2022/08/08 03:57:44;;;;;;;14.45;11.32;;;16.30;99.90;;;;;;5040240;28;20520;-77
2022/08/08 04:00:11;;;;;;;14.50;11.43;;;16.30;99.90;;;;;;5043679;28;20040;-77
2022/08/08 04:02:38;;;;;;;15.15;10.45;;;16.30;99.90;;;;;;5040570;28;20035;-77
2022/08/08 04:05:07;;;;;;;14.30;10.93;;;16.20;99.90;;;;;;5040540;28;20021;-77
2022/08/08 04:07:40;;;;;;;14.13;11.07;;;16.20;99.90;;;;;;5043829;28;20083;-77
2022/08/08 04:10:07;;;;;;;11.57;9.68;;;16.20;99.90;;;;;;5040046;28;20034;-77
2022/08/08 04:12:33;;;;;;;11.05;9.35;;;16.00;99.90;;;;;;5025342;28;20025;-77
2022/08/08 04:14:59;;;;;;;15.45;10.55;;;16.00;99.90;;;;;;5041456;28;20030;-77
2022/08/08 04:17:25;;;;;;;15.30;10.82;;;16.00;99.90;;;;;;5040909;28;20033;-77
2022/08/08 04:19:51;;;;;;;16.40;11.52;;;16.00;99.90;;;;;;5040840;28;20032;-77
2022/08/08 04:22:16;;;;;;;15.50;10.98;;;16.10;99.90;;;;;;5039580;28;20025;-77
2022/08/08 04:24:42;;;;;;;17.08;11.23;;;16.00;99.90;;;;;;5039434;28;20024;-77
2022/08/08 04:27:08;;;;;;;13.95;10.90;;;16.10;99.90;;;;;;5037412;28;20048;-77
2022/08/08 04:29:33;;;;;;;10.93;9.63;;;16.10;99.90;;;;;;5040148;28;20159;-77
2022/08/08 04:31:59;;;;;;;12.40;10.60;;;16.10;99.90;;;;;;5037172;28;20481;-77
2022/08/08 04:34:25;;;;;;;17.30;11.68;;;16.00;99.90;;;;;;5041909;28;20453;-78
2022/08/08 04:36:50;;;;;;;16.25;11.02;;;16.10;99.90;;;;;;5045846;28;20028;-77
2022/08/08 04:39:16;;;;;;;16.38;11.10;;;16.00;99.90;;;;;;5028315;28;20471;-78
2022/08/08 04:41:42;;;;;;;16.00;11.15;;;16.00;99.90;;;;;;5040092;28;20039;-78
2022/08/08 04:44:07;;;;;;;13.65;11.20;;;16.00;99.90;;;;;;5045092;28;20029;-77
2022/08/08 04:46:33;;;;;;;15.00;12.38;;;16.00;99.90;;;;;;5041936;28;20564;-78
2022/08/08 04:48:59;;;;;;;18.05;12.15;;;16.00;99.90;;;;;;5040242;28;20061;-77
2022/08/08 04:51:24;;;;;;;20.98;13.77;;;16.00;99.90;;;;;;5038367;28;20075;-78
2022/08/08 04:53:50;;;;;;;18.10;12.75;;;16.00;99.90;;;;;;5040135;28;20036;-78
2022/08/08 04:56:16;;;;;;;17.17;12.45;;;16.00;99.90;;;;;;5041717;28;20040;-78
2022/08/08 04:58:42;;;;;;;14.15;12.02;;;16.00;99.90;;;;;;5042084;28;20025;-78
2022/08/08 05:01:08;;;;;;;15.82;12.02;;;16.00;99.90;;;;;;5039544;28;20041;-78
2022/08/08 05:03:34;;;;;;;19.33;13.40;;;16.00;99.90;;;;;;5040067;28;20025;-78
2022/08/08 05:06:00;;;;;;;15.50;11.57;;;16.00;99.90;;;;;;5024478;28;20029;-78
2022/08/08 05:08:25;;;;;;;17.63;13.77;;;16.10;99.90;;;;;;5039396;28;20044;-78
2022/08/08 05:10:52;;;;;;;19.67;13.13;;;16.10;99.90;;;;;;5046652;28;20028;-78
2022/08/08 05:13:18;;;;;;;15.18;11.70;;;16.10;99.90;;;;;;5039024;28;20064;-78
2022/08/08 05:15:43;;;;;;;16.00;11.98;;;16.00;99.90;;;;;;5046326;28;20057;-79
2022/08/08 05:18:09;;;;;;;16.58;13.50;;;16.00;99.90;;;;;;5050139;28;20024;-79
2022/08/08 05:20:35;;;;;;;16.10;12.45;;;16.10;99.90;;;;;;5053250;28;20013;-79
2022/08/08 05:23:00;;;;;;;19.67;14.18;;;16.10;99.90;;;;;;5049122;28;20061;-79
2022/08/08 05:25:26;;;;;;;19.38;14.25;;;16.10;99.90;;;;;;5051417;28;20033;-76
2022/08/08 05:27:52;;;;;;;18.88;14.80;;;16.10;99.90;;;;;;5047097;28;20028;-75
2022/08/08 05:30:18;;;;;;;20.80;15.40;;;16.20;99.90;;;;;;5046135;28;20511;-76
2022/08/08 05:32:44;;;;;;;20.63;15.75;;;16.20;99.90;;;;;;5050943;28;20542;-76
2022/08/08 05:35:12;;;;;;;19.25;15.80;;;16.20;99.90;;;;;;5041327;28;20053;-76
2022/08/08 05:37:42;;;;;;;22.77;15.65;;;16.20;99.90;;;;;;5046910;28;20475;-75
2022/08/08 05:40:08;;;;;;;19.90;15.52;;;16.20;99.90;;;;;;5042622;28;20026;-75
2022/08/08 05:42:43;;;;;;;19.35;14.80;;;16.20;99.90;;;;;;5045092;28;20056;-76
2022/08/08 05:45:11;;;;;;;21.45;14.57;;;16.30;99.90;;;;;;5046530;28;20033;-76
2022/08/08 05:47:39;;;;;;;19.65;14.23;;;16.30;99.90;;;;;;5045054;28;20025;-76
2022/08/08 05:50:05;;;;;;;18.02;15.13;;;16.30;99.90;;;;;;5048939;28;20025;-76
2022/08/08 05:52:34;;;;;;;21.65;17.00;;;16.30;99.90;;;;;;5040786;28;20163;-77
2022/08/08 05:55:00;;;;;;;25.83;15.70;;;16.40;99.90;;;;;;5046176;28;20028;-77
2022/08/08 05:57:27;;;;;;;22.70;14.80;;;16.40;99.90;;;;;;5041737;28;20029;-76
2022/08/08 05:59:57;;;;;;;17.83;14.90;;;16.40;99.90;;;;;;5045556;28;20029;-77
2022/08/08 06:05:10;;;;;;;20.85;15.93;;;16.50;99.90;;;;;;5054207;28;20568;-76
2022/08/08 06:07:39;;;;;;;21.52;16.08;;;16.60;99.90;;;;;;5038905;28;20049;-78
2022/08/08 06:10:07;;;;;;;20.25;15.10;;;16.60;99.90;;;;;;5050880;28;20017;-77
2022/08/08 06:12:35;;;;;;;16.35;13.68;;;16.70;99.90;;;;;;5042090;28;20526;-76
2022/08/08 06:15:05;;;;;;;18.08;14.27;;;16.70;99.90;;;;;;5050404;28;20036;-78
2022/08/08 06:17:35;;;;;;;20.08;14.70;;;16.70;99.90;;;;;;5041412;28;20024;-77
2022/08/08 06:20:08;;;;;;;20.95;13.70;;;16.70;99.90;;;;;;5045119;28;20465;-77
2022/08/08 06:22:33;;;;;;;20.67;13.35;;;16.90;99.90;;;;;;5037796;28;20079;-82
2022/08/08 06:24:59;;;;;;;18.58;14.27;;;16.90;99.90;;;;;;5045909;28;20358;-77
2022/08/08 06:27:43;;;;;;;17.23;12.40;;;16.90;99.90;;;;;;5038653;28;20018;-78
2022/08/08 06:30:12;;;;;;;17.58;11.82;;;16.90;99.90;;;;;;5043818;28;20036;-77
2022/08/08 06:32:42;;;;;;;15.02;11.45;;;16.90;99.90;;;;;;5041465;28;20041;-77
2022/08/08 06:35:12;;;;;;;13.10;10.32;;;17.00;99.90;;;;;;5043889;28;20017;-77
2022/08/08 06:37:46;;;;;;;16.95;12.60;;;17.00;99.90;;;;;;5051256;28;20017;-78
2022/08/08 06:40:14;;;;;;;19.63;13.40;;;17.10;99.90;;;;;;5049447;28;20055;-77
2022/08/08 06:42:45;;;;;;;20.67;13.40;;;17.20;99.90;;;;;;5061659;28;20056;-77
2022/08/08 06:45:12;;;;;;;18.27;13.93;;;17.30;99.90;;;;;;5045777;28;20023;-77
2022/08/08 06:47:38;;;;;;;16.98;13.40;;;17.40;99.90;;;;;;5053251;28;20048;-77
2022/08/08 06:50:05;;;;;;;18.88;13.25;;;17.40;99.90;;;;;;5051889;28;20076;-77
2022/08/08 06:52:31;;;;;;;16.98;13.32;;;17.50;99.90;;;;;;5045732;28;20474;-77
2022/08/08 06:54:59;;;;;;;18.92;12.70;;;17.50;99.90;;;;;;5052196;28;20021;-77
2022/08/08 06:57:25;;;;;;;16.35;12.00;;;17.60;99.90;;;;;;5050104;28;20024;-78
2022/08/08 06:59:55;;;;;;;18.00;12.38;;;17.60;99.90;;;;;;5052311;28;20068;-77
2022/08/08 07:02:27;;;;;;;16.05;12.90;;;17.60;99.90;;;;;;5047913;28;20033;-77
2022/08/08 07:04:55;;;;;;;15.35;11.80;;;17.70;99.90;;;;;;5025504;28;20032;-78
2022/08/08 07:08:02;;;;;;;12.95;10.65;;;17.90;99.90;;;;;;5049975;28;20025;-77
2022/08/08 07:10:34;;;;;;;18.25;10.48;;;18.00;99.90;;;;;;5030979;28;20053;-77
2022/08/08 07:13:08;;;;;;;14.43;11.02;;;18.10;99.90;;;;;;5045837;28;20151;-77
2022/08/08 07:15:43;;;;;;;12.75;10.00;;;18.20;99.90;;;;;;5055563;28;20028;-77
2022/08/08 07:18:09;;;;;;;13.75;10.05;;;18.30;99.90;;;;;;5049488;28;20060;-77
2022/08/08 07:20:38;;;;;;;13.10;8.70;;;18.30;99.90;;;;;;5025754;28;20037;-77
2022/08/08 07:23:15;;;;;;;12.60;8.32;;;18.40;99.90;;;;;;5043069;28;20025;-77
2022/08/08 07:25:43;;;;;;;13.73;7.72;;;18.60;99.90;;;;;;5052601;28;20025;-77
2022/08/08 07:28:14;;;;;;;11.77;7.88;;;18.70;99.90;;;;;;5044822;28;20029;-78
2022/08/08 07:30:40;;;;;;;8.80;7.55;;;18.80;99.90;;;;;;5053781;28;20032;-78
2022/08/08 07:33:10;;;;;;;13.48;8.32;;;18.90;99.90;;;;;;5047762;28;20029;-78
2022/08/08 07:35:37;;;;;;;10.68;7.53;;;19.00;99.90;;;;;;5046543;28;20021;-78
2022/08/08 07:38:03;;;;;;;9.73;7.03;;;19.10;99.90;;;;;;5045252;28;20027;-78
2022/08/08 07:40:31;;;;;;;11.48;7.88;;;19.20;99.90;;;;;;5038964;28;20392;-77
2022/08/08 07:42:57;;;;;;;11.48;8.20;;;19.30;99.90;;;;;;5057622;28;20017;-77
2022/08/08 07:45:23;;;;;;;8.30;6.72;;;19.30;99.90;;;;;;5046432;28;20055;-77
2022/08/08 07:47:51;;;;;;;9.32;6.47;;;19.40;99.90;;;;;;5046848;28;20033;-78
2022/08/08 07:50:17;;;;;;;13.75;7.45;;;19.50;99.90;;;;;;5042425;28;20040;-76
2022/08/08 07:52:46;;;;;;;8.95;7.10;;;19.60;99.90;;;;;;5044452;28;20029;-78
2022/08/08 07:55:18;;;;;;;8.00;6.25;;;19.70;99.90;;;;;;5041907;28;20021;-78
2022/08/08 07:57:50;;;;;;;9.35;6.90;;;19.80;99.90;;;;;;5045852;28;20488;-78
2022/08/08 08:00:16;;;;;;;11.20;6.88;;;19.90;99.90;;;;;;5038822;28;20048;-78
2022/08/08 08:02:45;;;;;;;11.25;7.15;;;20.10;99.90;;;;;;5047116;28;20036;-78
2022/08/08 08:05:24;;;;;;;8.88;6.95;;;20.10;99.90;;;;;;5032759;28;20082;-78
2022/08/08 08:07:55;;;;;;;11.50;7.43;;;20.20;99.90;;;;;;5046540;28;20028;-78
2022/08/08 08:10:26;;;;;;;7.38;6.47;;;20.40;99.90;;;;;;5029868;28;20491;-78
2022/08/08 08:12:56;;;;;;;10.57;6.45;;;20.50;99.90;;;;;;5046492;28;20396;-78
2022/08/08 08:15:25;;;;;;;9.43;6.43;;;20.60;99.90;;;;;;5047896;28;20036;-79
2022/08/08 08:17:57;;;;;;;11.00;5.95;;;20.60;99.90;;;;;;5048808;28;20029;-79
2022/08/08 08:20:27;;;;;;;6.63;5.60;;;20.70;99.90;;;;;;5042729;28;20025;-78
2022/08/08 08:22:53;;;;;;;11.02;5.70;;;20.90;99.90;;;;;;5045975;28;20055;-78
2022/08/08 08:25:19;;;;;;;10.88;6.32;;;20.90;99.90;;;;;;5047124;28;20384;-78
2022/08/08 08:27:44;;;;;;;6.78;5.88;;;21.00;99.90;;;;;;5037703;28;20393;-78
2022/08/08 08:30:10;;;;;;;10.73;6.05;;;21.00;99.90;;;;;;5041212;28;20029;-78
2022/08/08 08:32:36;;;;;;;13.48;5.90;;;21.10;99.90;;;;;;5038529;28;20040;-79
2022/08/08 08:35:03;;;;;;;7.00;5.70;;;21.30;99.90;;;;;;5030490;28;20032;-79
2022/08/08 08:37:29;;;;;;;5.82;5.22;;;21.40;99.90;;;;;;5048202;28;20079;-79
2022/08/08 08:39:55;;;;;;;12.10;5.25;;;21.50;99.90;;;;;;5024484;28;20023;-79
2022/08/08 08:42:23;;;;;;;7.47;4.40;;;21.60;99.90;;;;;;5027584;28;20035;-81
2022/08/08 08:44:50;;;;;;;8.98;6.07;;;21.70;99.90;;;;;;5050384;28;20575;-81
2022/08/08 08:47:18;;;;;;;7.05;4.60;;;21.80;99.90;;;;;;5053849;28;20025;-82
2022/08/08 08:49:43;;;;;;;7.93;4.80;;;21.90;99.90;;;;;;5048629;28;20043;-83
2022/08/08 08:52:13;;;;;;;5.90;4.13;;;22.00;99.90;;;;;;5041088;28;20116;-82
2022/08/08 08:54:39;;;;;;;8.85;4.72;;;22.20;99.90;;;;;;5045566;28;20056;-82
2022/08/08 08:57:07;;;;;;;7.35;4.45;;;22.30;99.90;;;;;;5041440;28;20025;-81
2022/08/08 08:59:37;;;;;;;4.50;3.55;;;22.50;99.90;;;;;;5046070;28;20017;-80
2022/08/08 09:02:05;;;;;;;5.05;3.63;;;22.60;99.90;;;;;;5046198;28;20361;-79
2022/08/08 09:04:35;;;;;;;8.95;4.60;;;22.70;99.90;;;;;;5050293;28;20481;-82
2022/08/08 09:07:01;;;;;;;9.23;4.70;;;22.70;99.90;;;;;;5043489;28;20373;-83
2022/08/08 09:09:30;;;;;;;4.18;3.30;;;22.70;99.90;;;;;;5043754;28;20060;-82
2022/08/08 09:11:57;;;;;;;6.32;3.75;;;22.90;99.90;;;;;;5049939;28;20052;-83
2022/08/08 09:14:25;;;;;;;5.90;4.22;;;23.00;99.90;;;;;;5050796;28;20520;-79
2022/08/08 09:16:52;;;;;;;5.40;4.85;;;23.20;99.90;;;;;;5035592;28;20045;-81
2022/08/08 09:19:18;;;;;;;10.15;4.32;;;23.40;99.90;;;;;;5031108;28;20017;-81
2022/08/08 09:21:45;;;;;;;7.05;4.13;;;23.40;99.90;;;;;;5046179;28;20032;-81
2022/08/08 09:24:14;;;;;;;4.30;3.40;;;23.60;99.90;;;;;;5046507;28;20026;-81
2022/08/08 09:27:01;;;;;;;5.72;3.95;;;23.70;99.90;;;;;;5031287;28;20040;-80
2022/08/08 09:29:32;;;;;;;3.80;3.38;;;23.80;99.90;;;;;;5044008;28;20362;-80
2022/08/08 09:32:06;;;;;;;6.00;2.70;;;24.00;99.90;;;;;;5047375;28;20033;-82
2022/08/08 09:34:34;;;;;;;5.03;3.78;;;24.10;99.90;;;;;;5047442;28;20145;-82
2022/08/08 09:37:08;;;;;;;4.72;3.10;;;24.10;99.90;;;;;;5046019;28;20028;-81
2022/08/08 09:40:01;;;;;;;6.53;3.72;;;24.10;99.90;;;;;;5044603;28;20024;-83
2022/08/08 09:42:35;;;;;;;5.88;3.67;;;24.10;99.90;;;;;;5043772;28;20512;-81
2022/08/08 09:45:18;;;;;;;6.63;2.83;;;24.30;99.90;;;;;;5043642;28;20049;-83
2022/08/08 09:47:44;;;;;;;4.22;2.95;;;24.50;99.90;;;;;;5047661;28;20036;-74
2022/08/08 09:50:16;;;;;;;9.00;3.20;;;24.60;99.90;;;;;;5051873;28;20021;-82
2022/08/08 09:52:49;;;;;;;6.68;2.50;;;24.80;99.90;;;;;;5043707;28;20033;-84
2022/08/08 09:55:16;;;;;;;5.22;2.90;;;24.90;99.80;;;;;;5043777;28;20029;-82
2022/08/08 09:57:45;;;;;;;2.83;2.35;;;25.00;99.10;;;;;;5048348;28;20037;-81
2022/08/08 10:00:13;;;;;;;4.18;2.72;;;25.10;98.90;;;;;;5033648;28;20051;-81
2022/08/08 10:02:51;;;;;;;4.53;2.53;;;25.20;97.60;;;;;;5047919;28;20030;-79
2022/08/08 10:05:24;;;;;;;3.17;2.03;;;25.30;97.90;;;;;;5044354;28;20036;-80
2022/08/08 10:07:50;;;;;;;4.53;2.40;;;25.40;97.30;;;;;;5028986;28;20074;-78
2022/08/08 10:10:31;;;;;;;2.60;2.40;;;25.50;98.50;;;;;;5047038;28;20025;-80
2022/08/08 10:13:21;;;;;;;3.65;2.85;;;25.50;96.70;;;;;;5042368;28;20028;-79
2022/08/08 10:15:51;;;;;;;3.28;1.88;;;25.60;97.60;;;;;;5036952;28;20037;-78
2022/08/08 10:18:32;;;;;;;2.20;2.00;;;25.60;96.80;;;;;;5039357;28;20450;-79
2022/08/08 10:21:06;;;;;;;4.20;1.92;;;25.70;96.00;;;;;;5043589;28;20443;-79
2022/08/08 10:23:48;;;;;;;7.65;2.22;;;25.70;96.10;;;;;;5029699;28;20040;-79
2022/08/08 10:26:40;;;;;;;3.63;2.22;;;25.70;95.90;;;;;;5025526;28;20469;-78
2022/08/08 10:29:11;;;;;;;4.35;1.80;;;25.60;96.20;;;;;;5050156;28;20021;-79
2022/08/08 10:34:25;;;;;;;2.55;1.95;;;25.60;95.50;;;;;;5047276;28;20163;-78
2022/08/08 10:36:55;;;;;;;5.43;2.42;;;25.50;96.40;;;;;;5038937;28;20027;-78
2022/08/08 10:39:26;;;;;;;3.58;1.75;;;25.70;96.40;;;;;;5039772;28;20496;-78
2022/08/08 10:41:58;;;;;;;3.42;1.90;;;25.90;96.10;;;;;;5042781;28;20600;-80
2022/08/08 10:44:41;;;;;;;3.38;1.48;;;26.20;95.20;;;;;;5046187;28;20056;-78
2022/08/08 10:47:15;;;;;;;3.83;2.00;;;26.20;95.20;;;;;;5043864;28;20029;-78
2022/08/08 10:49:52;;;;;;;4.03;1.90;;;26.30;94.60;;;;;;5041855;28;20025;-76
2022/08/08 10:52:38;;;;;;;4.78;1.75;;;26.30;94.50;;;;;;5047403;28;20033;-77
2022/08/08 10:55:18;;;;;;;1.95;1.30;;;26.30;97.10;;;;;;5038844;28;20021;-76
2022/08/08 10:57:48;;;;;;;2.13;1.48;;;26.60;94.40;;;;;;5040989;28;20428;-76
2022/08/08 11:00:26;;;;;;;1.85;1.50;;;26.60;94.20;;;;;;5045807;28;20021;-76
2022/08/08 11:02:54;;;;;;;3.78;1.38;;;26.70;95.30;;;;;;5044464;28;20072;-76
2022/08/08 11:05:20;;;;;;;2.58;1.60;;;26.60;94.00;;;;;;5046463;28;20028;-76
2022/08/08 11:07:54;;;;;;;5.60;2.10;;;26.80;94.40;;;;;;5038713;28;20409;-76
2022/08/08 11:10:23;;;;;;;4.03;1.52;;;27.10;95.30;;;;;;5043238;28;20108;-77
2022/08/08 11:12:51;;;;;;;5.93;2.20;;;27.10;93.50;;;;;;5029230;28;20489;-78
2022/08/08 11:15:19;;;;;;;6.82;1.85;;;27.20;93.70;;;;;;5049016;28;20055;-77
2022/08/08 11:17:46;;;;;;;3.60;1.65;;;27.30;95.00;;;;;;5041069;28;20473;-77
2022/08/08 11:20:14;;;;;;;3.40;1.50;;;27.30;94.10;;;;;;5042393;28;20056;-80
2022/08/08 11:22:41;;;;;;;3.80;1.88;;;27.40;93.90;;;;;;5043518;28;20017;-76
2022/08/08 11:25:10;;;;;;;2.05;1.60;;;27.10;93.80;;;;;;5041925;28;20078;-78
2022/08/08 11:27:37;;;;;;;3.90;1.60;;;26.60;94.40;;;;;;5027655;28;20071;-76
2022/08/08 11:30:06;;;;;;;3.53;1.67;;;26.70;94.80;;;;;;5045373;28;20055;-77
2022/08/08 11:32:39;;;;;;;3.13;1.20;;;26.90;94.40;;;;;;5046068;28;20037;-77
2022/08/08 11:35:10;;;;;;;2.80;1.55;;;27.10;94.70;;;;;;5044353;28;20020;-77
2022/08/08 11:37:38;;;;;;;3.90;1.17;;;27.20;93.80;;;;;;5044000;28;20043;-77
2022/08/08 11:40:06;;;;;;;3.15;1.27;;;27.40;94.30;;;;;;5046964;28;20089;-76
2022/08/08 11:42:32;;;;;;;1.70;1.23;;;27.60;94.30;;;;;;5045783;28;20104;-76
2022/08/08 11:44:58;;;;;;;3.20;1.35;;;27.70;94.50;;;;;;5045873;28;20029;-76
2022/08/08 11:47:25;;;;;;;2.15;1.40;;;27.60;93.30;;;;;;5039724;28;20036;-79
2022/08/08 11:50:00;;;;;;;3.85;1.30;;;27.40;93.50;;;;;;5045426;28;20103;-76
2022/08/08 11:52:27;;;;;;;1.55;1.17;;;27.40;94.60;;;;;;5037450;28;20044;-80
2022/08/08 11:54:53;;;;;;;1.33;0.90;;;27.00;93.70;;;;;;5045223;28;20484;-77
2022/08/08 11:57:24;;;;;;;2.25;1.13;;;27.10;94.20;;;;;;5043484;28;20102;-78
2022/08/08 11:59:56;;;;;;;2.55;1.25;;;27.30;94.20;;;;;;5028105;28;20029;-79
2022/08/08 12:02:27;;;;;;;1.88;1.30;;;27.50;93.10;;;;;;5039222;28;20076;-80
2022/08/08 12:05:05;;;;;;;4.40;1.50;;;27.50;93.40;;;;;;5038772;28;20037;-80
2022/08/08 12:07:41;;;;;;;3.40;1.25;;;27.10;93.90;;;;;;5035257;28;20072;-80
2022/08/08 12:10:12;;;;;;;3.25;1.05;;;27.00;93.80;;;;;;5044633;28;20040;-78
2022/08/08 12:12:45;;;;;;;5.10;1.30;;;27.30;93.90;;;;;;5041167;28;20128;-76
2022/08/08 12:15:11;;;;;;;4.43;1.17;;;27.40;93.90;;;;;;5046423;28;20022;-77
2022/08/08 12:17:41;;;;;;;2.63;1.40;;;27.60;94.30;;;;;;5043517;28;20068;-76
2022/08/08 12:20:07;;;;;;;1.08;0.90;;;27.60;93.80;;;;;;5048478;28;20484;-77
2022/08/08 12:22:44;;;;;;;2.70;1.35;;;27.70;92.70;;;;;;5041438;28;20488;-77
2022/08/08 12:25:25;;;;;;;4.45;1.20;;;27.70;92.80;;;;;;5039715;28;20377;-76
2022/08/08 12:28:05;;;;;;;1.98;1.23;;;27.80;93.60;;;;;;5043163;28;20030;-76
2022/08/08 12:30:31;;;;;;;2.13;1.13;;;28.00;92.90;;;;;;5041432;28;20498;-76
2022/08/08 12:33:01;;;;;;;3.55;1.27;;;27.60;93.30;;;;;;5045834;28;20528;-76
2022/08/08 12:35:37;;;;;;;3.03;1.40;;;27.40;93.70;;;;;;5040221;28;20066;-76
2022/08/08 12:38:07;;;;;;;1.73;0.95;;;27.30;94.30;;;;;;5045035;28;20037;-75
2022/08/08 12:40:37;;;;;;;2.97;1.00;;;27.20;93.80;;;;;;5036769;28;20018;-76
2022/08/08 12:43:03;;;;;;;2.08;1.00;;;27.10;93.80;;;;;;5041932;28;20033;-76
2022/08/08 12:45:37;;;;;;;3.83;1.10;;;27.30;93.90;;;;;;5045804;28;20024;-77
2022/08/08 12:48:18;;;;;;;2.42;0.82;;;27.40;93.50;;;;;;5043096;28;20029;-76
2022/08/08 12:50:49;;;;;;;1.70;0.90;;;27.50;93.10;;;;;;5039464;28;20053;-76
2022/08/08 12:53:24;;;;;;;1.65;0.85;;;27.60;93.00;;;;;;5043654;28;20067;-77
2022/08/08 12:56:04;;;;;;;2.25;1.60;;;27.80;94.10;;;;;;5037081;28;20428;-78
2022/08/08 12:59:15;;;;;;;2.90;1.50;;;28.00;92.60;;;;;;5044184;28;20095;-77
2022/08/08 13:01:47;;;;;;;3.10;1.00;;;28.00;91.80;;;;;;4932348;29;20040;-77
2022/08/08 13:04:18;;;;;;;2.00;0.93;;;28.20;91.90;;;;;;5030191;28;20037;-77
2022/08/08 13:06:53;;;;;;;2.45;1.30;;;28.30;91.80;;;;;;5023186;28;20037;-77
2022/08/08 13:09:31;;;;;;;2.60;1.13;;;28.30;91.80;;;;;;5048915;28;20057;-76
2022/08/08 13:11:56;;;;;;;2.00;1.27;;;28.10;91.70;;;;;;5046199;28;20131;-76
2022/08/08 13:14:36;;;;;;;3.75;1.10;;;27.90;91.90;;;;;;5045249;28;20136;-76
2022/08/08 13:17:03;;;;;;;1.38;0.93;;;27.90;92.50;;;;;;5044815;28;20179;-75
2022/08/08 13:19:29;;;;;;;2.45;1.20;;;28.10;93.30;;;;;;5042131;28;20068;-76
2022/08/08 13:21:55;;;;;;;1.20;1.00;;;27.70;92.10;;;;;;5027536;28;20119;-76